createdAt,value
2023-01-07T00:01:34.503Z,1025.0
2023-01-07T00:16:24.955Z,1024.7
2023-01-07T00:31:24.829Z,1024.0
2023-01-07T00:46:24.944Z,1024.0
2023-01-07T01:01:24.904Z,1024.0
2023-01-07T01:16:25.075Z,1024.0
2023-01-07T01:31:25.040Z,1024.0
2023-01-07T01:46:24.613Z,1024.0
2023-01-07T02:01:24.611Z,1024.0
2023-01-07T02:16:24.764Z,1024.0
2023-01-07T02:31:24.509Z,1024.0
2023-01-07T02:46:24.564Z,1023.3
2023-01-07T03:01:25.201Z,1023.0
2023-01-07T03:16:25.508Z,1023.0
2023-01-07T03:31:25.316Z,1023.0
2023-01-07T03:46:25.548Z,1023.0
2023-01-07T04:01:25.512Z,1023.0
2023-01-07T04:16:25.597Z,1022.3
2023-01-07T04:31:34.636Z,1022.0
2023-01-07T04:46:34.481Z,1022.0
2023-01-07T05:01:34.846Z,1022.0
2023-01-07T05:16:24.763Z,1022.0
2023-01-07T05:31:24.839Z,1022.0
2023-01-07T05:46:24.912Z,1022.0
2023-01-07T06:01:25.149Z,1022.0
2023-01-07T06:16:25.460Z,1022.0
2023-01-07T06:31:25.071Z,1021.7
2023-01-07T06:46:25.217Z,1021.0
2023-01-07T07:01:25.088Z,1021.0
2023-01-07T07:16:25.318Z,1021.0
2023-01-07T07:31:25.415Z,1021.0
2023-01-07T07:45:25.292Z,1021.0
2023-01-07T08:00:27.273Z,1021.0
2023-01-07T08:15:24.493Z,1021.0
2023-01-07T08:30:28.156Z,1021.0
2023-01-07T09:21:52.219Z,1021.0
2023-01-07T09:30:33.185Z,1021.0
2023-01-07T09:45:33.779Z,1021.0
2023-01-07T10:00:34.922Z,1021.0
2023-01-07T10:15:24.638Z,1020.0
2023-01-07T10:30:25.759Z,1020.0
2023-01-07T10:45:24.013Z,1020.0
2023-01-07T11:00:23.668Z,1019.7
2023-01-07T11:15:24.465Z,1019.0
2023-01-07T11:30:25.782Z,1019.0
2023-01-07T11:45:24.002Z,1019.0
2023-01-07T12:00:34.446Z,1019.0
2023-01-07T12:15:23.943Z,1018.0
2023-01-07T12:30:25.124Z,1018.0
2023-01-07T12:45:24.450Z,1017.5
2023-01-07T12:59:02.650Z,1017.0
2023-01-07T13:11:19.410Z,1017.0
2023-01-07T13:15:23.454Z,1017.0
2023-01-07T13:45:23.753Z,1017.0
2023-01-07T14:15:23.772Z,1016.3
2023-01-07T14:30:24.179Z,1017.0
2023-01-07T14:45:24.257Z,1017.0
2023-01-07T15:00:31.162Z,1017.0
2023-01-07T15:15:23.721Z,1017.0
2023-01-07T15:30:24.254Z,1017.0
2023-01-07T15:42:32.560Z,1017.0
2023-01-07T15:53:45.113Z,1017.0
2023-01-07T16:05:46.791Z,1017.0
2023-01-07T16:16:24.510Z,1017.0
2023-01-07T16:31:24.729Z,1017.0
2023-01-07T16:46:24.865Z,1017.0
2023-01-07T17:01:24.829Z,1017.0
2023-01-07T17:16:25.044Z,1017.0
2023-01-07T17:31:24.910Z,1017.0
2023-01-07T17:46:25.020Z,1016.7
2023-01-07T18:01:25.023Z,1016.0
2023-01-07T18:16:27.518Z,1016.0
2023-01-07T18:31:25.132Z,1016.0
2023-01-07T18:46:25.213Z,1017.0
2023-01-07T19:01:25.089Z,1016.7
2023-01-07T19:16:25.506Z,1017.0
2023-01-07T19:31:25.295Z,1016.0
2023-01-07T19:46:34.477Z,1016.0
2023-01-07T20:04:02.237Z,1017.0
2023-01-07T20:16:17.291Z,1016.3
2023-01-07T20:16:26.499Z,1016.3
2023-01-07T20:36:48.151Z,1016.0
2023-01-07T20:51:48.223Z,1016.0
2023-01-07T21:06:48.470Z,1016.0
2023-01-07T21:16:24.416Z,1016.0
2023-01-07T21:31:24.598Z,1016.0
2023-01-07T21:46:24.462Z,1016.0
2023-01-07T22:01:24.908Z,1016.0
2023-01-07T22:16:25.516Z,1016.0
2023-01-07T22:31:25.801Z,1016.0
2023-01-07T22:46:24.838Z,1016.0
2023-01-07T23:04:07.927Z,1016.0
2023-01-07T23:16:24.912Z,1016.0
2023-01-07T23:31:25.165Z,1015.0
2023-01-07T23:46:25.157Z,1015.0
